Time;durP1;ratioP1;P1;durP2;ratioP2;P2;SDS_P1;SDS_P2;PMS_P1;PMS_P2;Temp;Humidity;BMP_temperature;BMP_pressure;BME280_temperature;BME280_humidity;BME280_pressure;Samples;Min_cycle;Max_cycle;Signal;HPM_P1;HPM_P2
2022/12/08 00:01:13;;;;;;;3.92;0.52;;;2.80;99.90;;;;;;5111263;27;20169;-61
2022/12/08 00:03:39;;;;;;;8.40;0.50;;;2.70;99.90;;;;;;5123705;27;20043;-60
2022/12/08 00:11:38;;;;;;;3.28;0.40;;;2.80;99.90;;;;;;5099905;28;20052;-60
2022/12/08 00:14:04;;;;;;;2.92;0.52;;;2.70;99.90;;;;;;5097646;27;20104;-60
2022/12/08 00:16:30;;;;;;;3.05;0.50;;;2.70;99.90;;;;;;5110334;27;20035;-60
2022/12/08 00:18:55;;;;;;;5.32;0.47;;;2.70;99.90;;;;;;5107371;27;20478;-61
2022/12/08 00:21:21;;;;;;;10.75;0.75;;;2.70;99.90;;;;;;5112659;27;20035;-60
2022/12/08 00:23:47;;;;;;;7.20;0.70;;;2.70;99.90;;;;;;5105557;27;20050;-60
2022/12/08 00:26:13;;;;;;;3.25;0.95;;;2.60;99.90;;;;;;5099225;28;20071;-60
2022/12/08 00:28:39;;;;;;;7.00;1.05;;;2.60;99.90;;;;;;5104663;28;20130;-60
2022/12/08 00:31:09;;;;;;;9.35;0.63;;;2.60;99.90;;;;;;5106340;28;20212;-61
2022/12/08 00:33:35;;;;;;;4.00;0.60;;;2.60;99.90;;;;;;5097096;28;20039;-60
2022/12/08 00:36:09;;;;;;;5.93;0.88;;;2.60;99.90;;;;;;5107072;28;20406;-60
2022/12/08 00:38:36;;;;;;;6.15;0.63;;;2.60;99.90;;;;;;5100415;28;20450;-60
2022/12/08 00:41:03;;;;;;;8.23;0.73;;;2.50;99.90;;;;;;5106283;28;20375;-60
2022/12/08 00:43:29;;;;;;;2.55;1.05;;;2.60;99.90;;;;;;5094417;28;20040;-60
2022/12/08 00:45:54;;;;;;;3.63;0.50;;;2.50;99.90;;;;;;5096796;28;20442;-60
2022/12/08 00:48:20;;;;;;;2.65;0.55;;;2.50;99.90;;;;;;5107253;28;20493;-61
2022/12/08 00:50:46;;;;;;;2.60;0.38;;;2.50;99.90;;;;;;5097877;28;20035;-60
2022/12/08 00:53:12;;;;;;;1.42;0.55;;;2.50;99.90;;;;;;5106888;28;20031;-60
2022/12/08 00:55:37;;;;;;;3.80;0.60;;;2.50;99.90;;;;;;5100514;28;20040;-60
2022/12/08 00:58:03;;;;;;;5.60;0.75;;;2.40;99.90;;;;;;5092043;28;20051;-60
2022/12/08 01:00:29;;;;;;;2.38;0.50;;;2.40;99.90;;;;;;5099544;28;20048;-60
2022/12/08 01:02:55;;;;;;;3.08;0.50;;;2.40;99.90;;;;;;5086071;28;20104;-60
2022/12/08 01:05:21;;;;;;;2.58;0.60;;;2.50;99.90;;;;;;5087429;28;20032;-60
2022/12/08 01:07:48;;;;;;;3.03;0.50;;;2.40;99.90;;;;;;5083992;28;20051;-60
2022/12/08 01:10:14;;;;;;;0.93;0.50;;;2.40;99.90;;;;;;5095145;28;20040;-60
2022/12/08 01:12:40;;;;;;;1.85;0.50;;;2.40;99.90;;;;;;5090499;28;20046;-60
2022/12/08 01:15:07;;;;;;;1.73;0.50;;;2.40;99.90;;;;;;5086393;28;20052;-60
2022/12/08 01:17:33;;;;;;;5.53;0.50;;;2.40;99.90;;;;;;5093707;28;20146;-60
2022/12/08 01:19:58;;;;;;;0.75;0.50;;;2.40;99.90;;;;;;5097111;28;20456;-60
2022/12/08 01:22:25;;;;;;;4.60;0.45;;;2.50;99.90;;;;;;5088485;28;20276;-61
2022/12/08 01:24:50;;;;;;;4.63;0.60;;;2.50;99.90;;;;;;5085051;28;20028;-60
2022/12/08 01:27:16;;;;;;;3.15;0.57;;;2.50;99.90;;;;;;5101173;28;20044;-60
2022/12/08 01:29:42;;;;;;;5.10;1.00;;;2.60;99.90;;;;;;5107355;27;20063;-60
2022/12/08 01:32:08;;;;;;;6.22;0.57;;;2.60;99.90;;;;;;5101632;28;20179;-60
2022/12/08 01:34:34;;;;;;;9.18;1.58;;;2.70;99.90;;;;;;5123201;27;20071;-60
2022/12/08 01:37:00;;;;;;;6.28;1.20;;;2.80;99.90;;;;;;5107328;28;20051;-60
2022/12/08 01:39:25;;;;;;;5.38;0.70;;;2.90;99.90;;;;;;5092162;28;20044;-60
2022/12/08 01:41:51;;;;;;;7.28;0.47;;;2.90;99.90;;;;;;5109419;27;20043;-61
2022/12/08 01:44:17;;;;;;;4.63;0.60;;;2.80;99.90;;;;;;5111243;27;20043;-61
2022/12/08 01:46:46;;;;;;;2.97;0.30;;;2.70;99.90;;;;;;5102441;28;20039;-61
2022/12/08 01:49:27;;;;;;;2.33;0.77;;;2.70;99.90;;;;;;5110418;28;20040;-60
2022/12/08 01:52:12;;;;;;;12.15;2.03;;;2.60;99.90;;;;;;5109910;28;20048;-60
2022/12/08 01:54:44;;;;;;;2.90;0.60;;;2.60;99.90;;;;;;5109609;28;20078;-60
2022/12/08 01:57:23;;;;;;;3.38;0.70;;;2.50;99.90;;;;;;5108539;27;20046;-61
2022/12/08 02:00:03;;;;;;;2.35;0.77;;;2.40;99.90;;;;;;5108912;28;20047;-60
2022/12/08 02:02:33;;;;;;;4.57;0.80;;;2.40;99.90;;;;;;5100882;28;20123;-60
2022/12/08 02:04:59;;;;;;;4.05;1.40;;;2.30;99.90;;;;;;5109858;28;20077;-60
2022/12/08 02:07:24;;;;;;;3.67;1.90;;;2.30;99.90;;;;;;5109643;27;20444;-60
2022/12/08 02:09:52;;;;;;;2.78;1.02;;;2.20;99.90;;;;;;5118129;27;20159;-61
2022/12/08 02:12:19;;;;;;;2.00;0.63;;;2.10;99.90;;;;;;5095913;28;20100;-60
2022/12/08 02:14:45;;;;;;;2.65;0.45;;;2.00;99.90;;;;;;5110501;28;20047;-60
2022/12/08 02:17:26;;;;;;;2.97;0.20;;;2.00;99.90;;;;;;5116727;27;20546;-61
2022/12/08 02:20:13;;;;;;;0.17;0.17;;;1.90;99.90;;;;;;5109683;28;20046;-60
2022/12/08 02:23:01;;;;;;;0.55;0.20;;;2.00;99.90;;;;;;5124064;27;20493;-60
2022/12/08 02:25:55;;;;;;;0.20;0.20;;;1.90;99.90;;;;;;5108436;28;20564;-60
2022/12/08 02:28:31;;;;;;;2.33;0.20;;;1.90;99.90;;;;;;5121196;27;20385;-60
2022/12/08 02:31:17;;;;;;;0.03;0.03;;;2.00;99.90;;;;;;5091954;27;20051;-60
2022/12/08 02:33:58;;;;;;;0.70;0.20;;;1.90;99.90;;;;;;5120613;27;20044;-60
2022/12/08 02:36:34;;;;;;;4.93;0.52;;;2.00;99.90;;;;;;5091069;28;21661;-61
2022/12/08 02:39:24;;;;;;;1.58;0.30;;;2.00;99.90;;;;;;5099941;27;20055;-61
2022/12/08 02:42:17;;;;;;;0.80;0.10;;;2.00;99.90;;;;;;5109128;27;20493;-60
2022/12/08 02:44:50;;;;;;;0.60;0.28;;;2.00;99.90;;;;;;5108529;28;20078;-60
2022/12/08 02:47:19;;;;;;;3.40;0.20;;;2.10;99.90;;;;;;5120206;27;20393;-60
2022/12/08 02:49:45;;;;;;;2.00;0.20;;;2.10;99.90;;;;;;5110578;27;20040;-60
2022/12/08 02:52:11;;;;;;;0.40;0.10;;;2.10;99.90;;;;;;5089554;28;20432;-60
2022/12/08 02:54:40;;;;;;;0.10;0.10;;;2.10;99.90;;;;;;5109269;27;20040;-60
2022/12/08 02:57:26;;;;;;;1.88;0.20;;;2.10;99.90;;;;;;5108908;28;20077;-61
2022/12/08 03:00:12;;;;;;;2.38;0.30;;;2.10;99.90;;;;;;5108029;28;20084;-61
2022/12/08 03:02:58;;;;;;;3.65;0.30;;;2.10;99.90;;;;;;5109493;27;20266;-60
2022/12/08 03:05:37;;;;;;;4.40;0.70;;;2.10;99.90;;;;;;5094450;28;20398;-60
2022/12/08 03:08:21;;;;;;;3.30;0.20;;;2.10;99.90;;;;;;5108544;28;20462;-61
2022/12/08 03:11:07;;;;;;;0.95;0.30;;;2.10;99.90;;;;;;5123639;27;20054;-60
2022/12/08 03:13:43;;;;;;;4.00;0.32;;;2.10;99.90;;;;;;5108155;28;20043;-60
2022/12/08 03:16:10;;;;;;;0.65;0.17;;;2.10;99.90;;;;;;5114294;27;20067;-60
2022/12/08 03:18:41;;;;;;;3.25;0.40;;;2.10;99.90;;;;;;5108752;28;20047;-61
2022/12/08 03:21:09;;;;;;;3.88;0.40;;;2.20;99.90;;;;;;5108600;27;20123;-60
2022/12/08 03:23:37;;;;;;;0.80;0.40;;;2.20;99.90;;;;;;5109024;28;20071;-60
2022/12/08 03:26:30;;;;;;;3.13;0.38;;;2.30;99.90;;;;;;5088682;28;20545;-61
2022/12/08 03:28:57;;;;;;;3.13;0.40;;;2.40;99.90;;;;;;5108804;28;20070;-60
2022/12/08 03:31:27;;;;;;;3.90;0.93;;;2.30;99.90;;;;;;5090350;28;20390;-60
2022/12/08 03:33:55;;;;;;;2.95;0.50;;;2.20;99.90;;;;;;5107677;28;20040;-60
2022/12/08 03:36:22;;;;;;;3.53;0.45;;;2.20;99.90;;;;;;5110114;27;20481;-61
2022/12/08 03:38:54;;;;;;;0.10;0.08;;;2.10;99.90;;;;;;5107029;28;20120;-60
2022/12/08 03:41:21;;;;;;;4.40;0.30;;;2.10;99.90;;;;;;5089970;28;20376;-60
2022/12/08 03:43:56;;;;;;;0.98;0.20;;;2.10;99.90;;;;;;5107130;28;20043;-60
2022/12/08 03:46:25;;;;;;;1.75;0.20;;;2.10;99.90;;;;;;5107529;28;20082;-60
2022/12/08 03:48:51;;;;;;;2.53;0.20;;;2.20;99.90;;;;;;5108012;28;20047;-60
2022/12/08 03:51:17;;;;;;;1.27;0.10;;;2.20;99.90;;;;;;5106922;28;20044;-60
2022/12/08 03:53:43;;;;;;;0.20;0.10;;;2.20;99.90;;;;;;5107841;28;20440;-60
2022/12/08 03:56:24;;;;;;;0.15;0.00;;;2.20;99.90;;;;;;5106794;28;20047;-61
2022/12/08 03:58:50;;;;;;;0.50;0.10;;;2.20;99.90;;;;;;5107904;28;20050;-60
2022/12/08 04:01:16;;;;;;;0.88;0.20;;;2.20;99.90;;;;;;5109992;27;20047;-60
2022/12/08 04:03:42;;;;;;;0.32;0.20;;;2.10;99.90;;;;;;5110409;27;20389;-61
2022/12/08 04:06:08;;;;;;;2.95;0.10;;;2.10;99.90;;;;;;5107910;28;20092;-61
2022/12/08 04:08:33;;;;;;;0.17;0.10;;;2.10;99.90;;;;;;5106383;27;20043;-60
2022/12/08 04:11:00;;;;;;;0.10;0.10;;;2.10;99.90;;;;;;5090730;27;20043;-60
2022/12/08 04:13:26;;;;;;;1.80;0.30;;;2.10;99.90;;;;;;5116598;27;20053;-61
2022/12/08 04:15:51;;;;;;;1.10;0.35;;;2.10;99.90;;;;;;5108058;28;20043;-61
2022/12/08 04:18:17;;;;;;;0.75;0.10;;;2.10;99.90;;;;;;5106797;27;20043;-60
2022/12/08 04:20:44;;;;;;;1.70;0.15;;;2.10;99.90;;;;;;5072327;28;20056;-61
2022/12/08 04:23:11;;;;;;;0.22;0.20;;;2.10;99.90;;;;;;5107054;28;20066;-60
2022/12/08 04:25:37;;;;;;;0.00;0.00;;;2.00;99.90;;;;;;5106615;28;20389;-60
2022/12/08 04:28:04;;;;;;;0.17;0.17;;;2.00;99.90;;;;;;5110491;27;20058;-61
2022/12/08 04:30:31;;;;;;;0.90;0.40;;;2.00;99.90;;;;;;5115771;27;20073;-60
2022/12/08 04:32:57;;;;;;;0.50;0.25;;;2.00;99.90;;;;;;5107510;28;20041;-61
2022/12/08 04:35:23;;;;;;;0.25;0.15;;;1.90;99.90;;;;;;5105990;28;20040;-60
2022/12/08 04:37:49;;;;;;;1.63;0.30;;;1.90;99.90;;;;;;5107067;28;20585;-61
2022/12/08 04:40:15;;;;;;;1.95;0.40;;;1.90;99.90;;;;;;5117988;27;20031;-61
2022/12/08 04:42:41;;;;;;;1.20;0.13;;;1.90;99.90;;;;;;5106385;28;20279;-60
2022/12/08 04:45:07;;;;;;;0.77;0.10;;;1.90;99.90;;;;;;5088831;28;20046;-61
2022/12/08 04:47:33;;;;;;;0.10;0.10;;;1.90;99.90;;;;;;5077934;28;20485;-61
2022/12/08 04:49:59;;;;;;;0.10;0.00;;;1.90;99.90;;;;;;5115500;27;20050;-61
2022/12/08 04:52:25;;;;;;;4.50;0.70;;;2.00;99.90;;;;;;5105564;28;20095;-60
2022/12/08 04:54:51;;;;;;;0.73;0.40;;;2.00;99.90;;;;;;5088678;28;20039;-60
2022/12/08 04:57:17;;;;;;;0.55;0.30;;;2.00;99.90;;;;;;5087746;28;20039;-60
2022/12/08 04:59:43;;;;;;;3.00;0.40;;;2.10;99.90;;;;;;5094294;28;20171;-61
2022/12/08 05:02:08;;;;;;;0.93;0.32;;;2.10;99.90;;;;;;5089158;28;20058;-61
2022/12/08 05:04:34;;;;;;;2.78;0.90;;;2.10;99.90;;;;;;5105813;28;20051;-60
2022/12/08 05:07:00;;;;;;;2.13;0.65;;;2.10;99.90;;;;;;5107062;28;20051;-60
2022/12/08 05:09:26;;;;;;;0.63;0.30;;;2.10;99.90;;;;;;5108625;28;20039;-61
2022/12/08 05:11:52;;;;;;;1.90;0.50;;;2.10;99.90;;;;;;5107469;28;20062;-61
2022/12/08 05:14:18;;;;;;;2.33;0.50;;;2.10;99.90;;;;;;5105155;28;20052;-61
2022/12/08 05:16:45;;;;;;;0.20;0.20;;;2.10;99.90;;;;;;5088516;28;20051;-61
2022/12/08 05:19:12;;;;;;;0.35;0.13;;;2.00;99.90;;;;;;5106108;28;20054;-61
2022/12/08 05:21:38;;;;;;;0.65;0.45;;;2.00;99.90;;;;;;5088315;28;20106;-60
2022/12/08 05:24:04;;;;;;;2.47;0.20;;;2.00;99.90;;;;;;5106605;28;20118;-60
2022/12/08 05:26:31;;;;;;;4.20;0.25;;;2.00;99.90;;;;;;5086754;28;20126;-61
2022/12/08 05:28:57;;;;;;;3.20;0.47;;;2.10;99.90;;;;;;5107231;28;20047;-60
2022/12/08 05:31:23;;;;;;;4.40;0.30;;;2.00;99.90;;;;;;5106623;28;20093;-60
2022/12/08 05:33:50;;;;;;;1.40;0.15;;;2.10;99.90;;;;;;5106603;28;20274;-61
2022/12/08 05:36:16;;;;;;;0.32;0.20;;;2.00;99.90;;;;;;5087215;28;20104;-60
2022/12/08 05:38:42;;;;;;;4.80;0.17;;;2.00;99.90;;;;;;5106025;28;20043;-61
2022/12/08 05:41:13;;;;;;;0.90;0.20;;;2.00;99.90;;;;;;5107453;28;20427;-61
2022/12/08 05:43:39;;;;;;;0.38;0.15;;;2.00;99.90;;;;;;5105295;28;20043;-61
2022/12/08 05:46:07;;;;;;;3.60;0.28;;;1.90;99.90;;;;;;5106883;28;20043;-61
2022/12/08 05:48:33;;;;;;;5.30;0.40;;;1.90;99.90;;;;;;5104605;28;20443;-60
2022/12/08 05:51:00;;;;;;;1.48;0.30;;;1.90;99.90;;;;;;5106547;28;20439;-61
2022/12/08 05:53:26;;;;;;;3.88;0.38;;;1.80;99.90;;;;;;5115432;28;20398;-60
2022/12/08 05:55:52;;;;;;;0.43;0.30;;;1.80;99.90;;;;;;5105962;28;20360;-60
2022/12/08 05:58:21;;;;;;;3.40;0.40;;;1.70;99.90;;;;;;5087753;28;20051;-61
2022/12/08 06:00:47;;;;;;;2.42;0.22;;;1.60;99.90;;;;;;5086559;28;20058;-60
2022/12/08 06:03:15;;;;;;;3.15;0.30;;;1.60;99.90;;;;;;5114250;28;20040;-60
2022/12/08 06:05:41;;;;;;;3.10;0.30;;;1.60;99.90;;;;;;5104581;28;20051;-60
2022/12/08 06:08:07;;;;;;;0.85;0.08;;;1.50;99.90;;;;;;5106547;28;20493;-61
2022/12/08 06:10:36;;;;;;;2.33;0.45;;;1.40;99.90;;;;;;5119295;28;20433;-60
2022/12/08 06:13:02;;;;;;;6.05;0.20;;;1.40;99.90;;;;;;5119500;28;20048;-61
2022/12/08 06:15:28;;;;;;;3.70;0.30;;;1.30;99.90;;;;;;5106154;28;20050;-60
2022/12/08 06:17:53;;;;;;;0.00;0.00;;;1.30;99.90;;;;;;5091377;27;20035;-60
2022/12/08 06:20:19;;;;;;;2.65;0.47;;;1.30;99.90;;;;;;5120188;27;20043;-61
2022/12/08 06:22:45;;;;;;;1.33;0.30;;;1.20;99.90;;;;;;5070020;27;20054;-60
2022/12/08 06:25:11;;;;;;;2.60;0.30;;;1.20;99.90;;;;;;5110694;27;20104;-61
2022/12/08 06:27:38;;;;;;;2.08;0.28;;;1.20;99.90;;;;;;5108062;28;20063;-61
2022/12/08 06:30:04;;;;;;;0.82;0.20;;;1.10;99.90;;;;;;5110197;27;20066;-61
2022/12/08 06:32:30;;;;;;;2.65;0.20;;;1.10;99.90;;;;;;5110054;27;20080;-60
2022/12/08 06:34:56;;;;;;;2.63;0.40;;;1.10;99.90;;;;;;5117198;27;20146;-61
2022/12/08 06:37:22;;;;;;;2.58;0.32;;;1.00;99.90;;;;;;5085167;28;20050;-60
2022/12/08 06:39:47;;;;;;;1.40;0.20;;;1.00;99.90;;;;;;5122150;27;20046;-61
2022/12/08 06:44:59;;;;;;;3.50;0.40;;;0.90;99.90;;;;;;5113811;27;20046;-60
2022/12/08 06:47:25;;;;;;;2.53;0.30;;;0.90;99.90;;;;;;5099035;28;20031;-60
2022/12/08 06:49:51;;;;;;;1.67;0.40;;;0.90;99.90;;;;;;5123894;27;20079;-60
2022/12/08 06:52:16;;;;;;;3.92;0.30;;;0.90;99.90;;;;;;5117042;27;20039;-60
2022/12/08 06:54:42;;;;;;;5.25;0.50;;;0.90;99.90;;;;;;5123966;27;20039;-60
2022/12/08 06:57:08;;;;;;;2.00;0.32;;;0.90;99.90;;;;;;5112278;27;20556;-60
2022/12/08 06:59:34;;;;;;;2.38;0.38;;;0.90;99.90;;;;;;5112831;27;20040;-60
2022/12/08 07:02:00;;;;;;;3.47;0.30;;;0.80;99.90;;;;;;5118701;27;20039;-60
2022/12/08 07:04:25;;;;;;;3.05;0.40;;;0.90;99.90;;;;;;5129884;27;20046;-60
2022/12/08 07:06:51;;;;;;;3.95;0.50;;;0.80;99.90;;;;;;5116353;27;20134;-60
2022/12/08 07:09:17;;;;;;;3.38;0.47;;;0.80;99.90;;;;;;5129118;27;20031;-60
2022/12/08 07:11:44;;;;;;;1.17;0.55;;;0.80;99.90;;;;;;5119823;27;20048;-60
2022/12/08 07:14:12;;;;;;;1.60;0.28;;;0.80;99.90;;;;;;5089692;28;20044;-60
2022/12/08 07:16:38;;;;;;;0.75;0.35;;;0.80;99.90;;;;;;5091537;28;20126;-60
2022/12/08 07:19:04;;;;;;;2.63;0.40;;;0.80;99.90;;;;;;5106908;28;20135;-61
2022/12/08 07:21:30;;;;;;;5.30;0.60;;;0.80;99.90;;;;;;5090608;28;20733;-60
2022/12/08 07:23:56;;;;;;;1.35;0.30;;;0.80;99.90;;;;;;5107274;28;20046;-61
2022/12/08 07:26:21;;;;;;;6.25;1.65;;;0.80;99.90;;;;;;5108338;28;20497;-61
2022/12/08 07:28:47;;;;;;;3.35;0.38;;;0.80;99.90;;;;;;5071064;28;20131;-60
2022/12/08 07:31:19;;;;;;;1.50;0.35;;;0.80;99.90;;;;;;5117430;27;20122;-61
2022/12/08 07:33:46;;;;;;;4.43;0.60;;;0.80;99.90;;;;;;5111071;27;20044;-61
2022/12/08 07:36:12;;;;;;;3.65;0.68;;;0.80;99.90;;;;;;5121541;27;20404;-61
2022/12/08 07:38:38;;;;;;;5.30;0.70;;;0.80;99.90;;;;;;5120334;27;20079;-61
2022/12/08 07:41:04;;;;;;;0.40;0.40;;;0.80;99.90;;;;;;5126815;27;20524;-61
2022/12/08 07:43:30;;;;;;;2.45;0.40;;;0.80;99.90;;;;;;5106028;27;20071;-60
2022/12/08 07:45:56;;;;;;;2.53;0.60;;;0.80;99.90;;;;;;5099172;27;20047;-60
2022/12/08 07:48:22;;;;;;;6.75;0.70;;;0.80;99.90;;;;;;5099038;27;20054;-60
2022/12/08 07:50:48;;;;;;;4.90;0.70;;;0.80;99.90;;;;;;5103548;27;20043;-61
2022/12/08 07:53:14;;;;;;;2.05;0.43;;;0.80;99.90;;;;;;5126487;27;20054;-61
2022/12/08 07:55:40;;;;;;;4.15;0.45;;;0.80;99.90;;;;;;5128758;27;20086;-60
2022/12/08 07:58:06;;;;;;;3.20;0.50;;;0.90;99.90;;;;;;5124562;27;20084;-61
2022/12/08 08:00:32;;;;;;;0.20;0.20;;;0.90;99.90;;;;;;5124045;27;20043;-61
2022/12/08 08:03:01;;;;;;;0.70;0.45;;;0.90;99.90;;;;;;5100689;27;20035;-61
2022/12/08 08:05:27;;;;;;;2.22;0.40;;;0.90;99.90;;;;;;5124125;27;20062;-61
2022/12/08 08:07:53;;;;;;;2.60;0.32;;;0.90;99.90;;;;;;5115665;27;20039;-60
2022/12/08 08:10:18;;;;;;;3.50;0.40;;;0.90;99.90;;;;;;5102280;27;20489;-60
2022/12/08 08:12:45;;;;;;;1.67;0.30;;;0.90;99.90;;;;;;5126386;27;20457;-60
2022/12/08 08:15:11;;;;;;;2.92;0.40;;;0.90;99.90;;;;;;5124441;27;20389;-61
2022/12/08 08:17:37;;;;;;;2.78;0.68;;;0.80;99.90;;;;;;5105642;27;20039;-60
2022/12/08 08:20:07;;;;;;;4.97;0.80;;;0.80;99.90;;;;;;5116244;27;20063;-60
2022/12/08 08:22:33;;;;;;;;;;;0.80;99.90;;;;;;5128364;27;20039;-61
2022/12/08 08:24:59;;;;;;;2.50;0.73;;;0.80;99.90;;;;;;5127309;27;20018;-60
2022/12/08 08:27:25;;;;;;;6.05;1.25;;;0.80;99.90;;;;;;5126906;27;20519;-61
2022/12/08 08:29:51;;;;;;;3.40;0.95;;;0.90;99.90;;;;;;5122718;27;20122;-61
2022/12/08 08:32:18;;;;;;;3.63;0.65;;;0.90;99.90;;;;;;5106197;27;20051;-61
2022/12/08 08:34:44;;;;;;;2.42;0.43;;;0.90;99.90;;;;;;5127930;27;20465;-61
2022/12/08 08:37:10;;;;;;;1.70;0.40;;;0.90;99.90;;;;;;5117859;27;20031;-60
2022/12/08 08:39:36;;;;;;;4.65;0.63;;;1.00;99.90;;;;;;5098353;27;20483;-60
2022/12/08 08:42:02;;;;;;;5.68;0.65;;;1.00;99.90;;;;;;5115564;27;20095;-61
2022/12/08 08:44:28;;;;;;;4.72;1.20;;;1.10;99.90;;;;;;5127115;27;20071;-60
2022/12/08 08:46:53;;;;;;;2.13;0.50;;;1.20;99.90;;;;;;5108963;27;20043;-60
2022/12/08 08:49:20;;;;;;;5.20;0.70;;;1.20;99.90;;;;;;5126327;27;20043;-60
2022/12/08 08:51:46;;;;;;;2.88;0.68;;;1.30;99.90;;;;;;5123077;27;20489;-61
2022/12/08 08:54:14;;;;;;;2.60;0.80;;;1.30;99.90;;;;;;5122759;27;20046;-60
2022/12/08 08:56:40;;;;;;;4.65;0.68;;;1.40;99.90;;;;;;5122742;27;20133;-61
2022/12/08 08:59:08;;;;;;;7.68;0.82;;;1.50;99.90;;;;;;5125848;27;20167;-61
2022/12/08 09:01:33;;;;;;;2.55;0.98;;;1.50;99.90;;;;;;5119435;27;20472;-61
2022/12/08 09:04:00;;;;;;;2.75;0.70;;;1.60;99.90;;;;;;5116855;27;20100;-61
2022/12/08 09:06:29;;;;;;;7.22;0.98;;;1.60;99.90;;;;;;5125818;27;20039;-61
2022/12/08 09:08:55;;;;;;;5.28;0.60;;;1.60;99.90;;;;;;5112491;27;20284;-60
2022/12/08 09:11:24;;;;;;;10.07;1.05;;;1.60;99.90;;;;;;5117454;28;20036;-61
2022/12/08 09:13:51;;;;;;;8.75;0.80;;;1.60;99.90;;;;;;5088763;28;20066;-61
2022/12/08 09:16:17;;;;;;;2.25;0.60;;;1.70;99.90;;;;;;5086900;28;20063;-61
2022/12/08 09:18:44;;;;;;;5.45;0.90;;;1.70;99.90;;;;;;5106817;28;20109;-61
2022/12/08 09:21:13;;;;;;;1.48;0.70;;;1.70;99.90;;;;;;5105409;28;20626;-61
2022/12/08 09:23:39;;;;;;;1.02;0.77;;;1.80;99.90;;;;;;5105802;28;20603;-61
2022/12/08 09:26:06;;;;;;;6.45;0.90;;;1.80;99.90;;;;;;5087669;28;20071;-61
2022/12/08 09:28:32;;;;;;;3.22;0.93;;;1.80;99.90;;;;;;5105283;28;20085;-61
2022/12/08 09:30:58;;;;;;;1.52;1.00;;;1.90;99.90;;;;;;5089491;28;20044;-61
2022/12/08 09:33:23;;;;;;;5.43;1.00;;;1.90;99.90;;;;;;5113999;28;20043;-61
2022/12/08 09:35:49;;;;;;;5.10;1.08;;;1.90;99.90;;;;;;5106937;28;20087;-61
2022/12/08 09:38:15;;;;;;;3.65;0.90;;;2.00;99.90;;;;;;5105150;28;20043;-61
2022/12/08 09:40:52;;;;;;;2.08;0.80;;;2.10;99.90;;;;;;5106241;28;20042;-61
2022/12/08 09:43:30;;;;;;;11.82;1.20;;;2.00;99.90;;;;;;5106040;28;20047;-61
2022/12/08 09:45:56;;;;;;;5.45;0.80;;;2.10;99.90;;;;;;5104979;28;20027;-61
2022/12/08 09:48:29;;;;;;;7.38;0.90;;;2.10;99.90;;;;;;5088152;28;20393;-60
2022/12/08 09:50:57;;;;;;;3.30;0.90;;;2.10;99.90;;;;;;5106458;28;20117;-61
2022/12/08 09:53:28;;;;;;;12.13;0.90;;;2.10;99.90;;;;;;5114864;27;20043;-61
2022/12/08 09:56:16;;;;;;;11.70;1.08;;;2.20;99.90;;;;;;5091762;28;20052;-61
2022/12/08 09:59:19;;;;;;;8.18;0.82;;;2.20;99.90;;;;;;5115187;27;20079;-61
2022/12/08 10:01:45;;;;;;;4.32;0.98;;;2.30;99.90;;;;;;5124418;27;20040;-61
2022/12/08 10:04:25;;;;;;;8.15;0.93;;;2.30;99.90;;;;;;5127924;27;20047;-60
2022/12/08 10:06:54;;;;;;;5.97;0.70;;;2.40;99.90;;;;;;5129605;27;20133;-61
2022/12/08 10:09:31;;;;;;;9.18;1.17;;;2.50;99.90;;;;;;5092795;27;20639;-61
2022/12/08 10:12:21;;;;;;;6.72;1.23;;;2.60;99.90;;;;;;5118419;27;20403;-61
2022/12/08 10:14:53;;;;;;;3.38;2.92;;;2.70;99.90;;;;;;5120684;27;20050;-61
2022/12/08 10:17:25;;;;;;;14.32;4.30;;;2.80;99.90;;;;;;5129160;27;20059;-61
2022/12/08 10:20:00;;;;;;;5.10;2.72;;;2.80;99.90;;;;;;5127895;27;20096;-61
2022/12/08 10:22:32;;;;;;;6.78;1.52;;;2.80;99.90;;;;;;5130187;27;20393;-61
2022/12/08 10:25:24;;;;;;;15.25;1.40;;;2.80;99.90;;;;;;5097788;27;20043;-61
2022/12/08 10:27:52;;;;;;;5.72;0.85;;;2.80;99.90;;;;;;5118389;27;20112;-61
2022/12/08 10:30:20;;;;;;;1.27;0.70;;;2.70;99.90;;;;;;5129557;27;20477;-61
2022/12/08 10:32:49;;;;;;;2.80;1.10;;;2.70;99.90;;;;;;5108532;27;20043;-61
2022/12/08 10:35:17;;;;;;;7.55;1.10;;;2.70;99.90;;;;;;5127766;27;20037;-61
2022/12/08 10:38:05;;;;;;;2.53;0.70;;;2.70;99.90;;;;;;5126967;27;20459;-60
2022/12/08 10:40:35;;;;;;;3.60;0.60;;;2.70;99.90;;;;;;5130047;27;20050;-61
2022/12/08 10:43:04;;;;;;;1.73;0.43;;;2.80;99.90;;;;;;5128906;27;20062;-61
2022/12/08 10:45:37;;;;;;;3.97;0.73;;;2.80;99.90;;;;;;5111275;27;20035;-60
2022/12/08 10:48:17;;;;;;;6.10;1.45;;;2.90;99.90;;;;;;5105576;27;20084;-61
2022/12/08 10:50:45;;;;;;;7.80;0.93;;;3.00;99.90;;;;;;5116504;27;20869;-61
2022/12/08 10:53:21;;;;;;;5.35;0.70;;;3.10;99.90;;;;;;5129741;27;20380;-60
2022/12/08 10:56:02;;;;;;;7.30;0.80;;;3.30;99.90;;;;;;5115690;27;20082;-61
2022/12/08 10:58:28;;;;;;;9.63;0.88;;;3.40;99.90;;;;;;5107987;27;20058;-61
2022/12/08 11:01:05;;;;;;;9.85;0.95;;;3.40;99.90;;;;;;5108762;27;20039;-61
2022/12/08 11:03:43;;;;;;;3.92;0.55;;;3.50;99.90;;;;;;5122390;27;20122;-61
2022/12/08 11:06:15;;;;;;;4.53;0.63;;;3.50;99.90;;;;;;5129038;27;20101;-61
2022/12/08 11:08:54;;;;;;;1.77;0.68;;;3.60;99.90;;;;;;5125775;27;20039;-60
2022/12/08 11:11:21;;;;;;;6.97;0.65;;;3.70;99.90;;;;;;5103951;28;20405;-60
2022/12/08 11:13:50;;;;;;;1.63;0.60;;;3.70;99.90;;;;;;5073434;28;20127;-60
2022/12/08 11:16:17;;;;;;;2.58;0.60;;;3.80;99.90;;;;;;5107894;28;20035;-60
2022/12/08 11:18:46;;;;;;;3.50;0.70;;;3.90;99.90;;;;;;5114338;27;20040;-60
2022/12/08 11:21:16;;;;;;;5.05;0.82;;;3.90;99.90;;;;;;5116423;27;20496;-61
2022/12/08 11:23:46;;;;;;;7.75;0.98;;;3.90;99.90;;;;;;5106875;27;20043;-60
2022/12/08 11:26:34;;;;;;;4.38;0.93;;;4.00;99.90;;;;;;5113167;27;20036;-61
2022/12/08 11:28:59;;;;;;;7.25;0.90;;;4.00;99.90;;;;;;5110572;27;20048;-61
2022/12/08 11:31:33;;;;;;;5.38;1.23;;;4.10;99.90;;;;;;5114366;27;20058;-60
2022/12/08 11:34:00;;;;;;;5.38;1.05;;;4.10;99.90;;;;;;5099535;27;20057;-61
2022/12/08 11:36:29;;;;;;;5.65;0.73;;;4.10;99.90;;;;;;5095053;27;20046;-60
2022/12/08 11:38:59;;;;;;;4.32;1.02;;;4.20;99.90;;;;;;5111471;27;20502;-61
2022/12/08 11:41:41;;;;;;;2.50;0.85;;;4.20;99.90;;;;;;5112751;27;20062;-60
2022/12/08 11:44:23;;;;;;;9.13;1.10;;;4.30;99.90;;;;;;5128711;27;20047;-61
2022/12/08 11:46:57;;;;;;;5.60;0.88;;;4.40;99.90;;;;;;5117400;27;20508;-61
2022/12/08 11:49:33;;;;;;;1.02;0.57;;;4.40;99.90;;;;;;5096903;28;20520;-61
2022/12/08 11:52:12;;;;;;;6.43;0.82;;;4.40;99.90;;;;;;5126598;27;20043;-61
2022/12/08 11:55:12;;;;;;;6.57;1.23;;;4.40;99.90;;;;;;5110866;27;20127;-61
2022/12/08 11:57:38;;;;;;;3.53;1.30;;;4.50;99.90;;;;;;5085161;27;20067;-61
2022/12/08 12:00:06;;;;;;;6.90;0.90;;;4.50;99.90;;;;;;5104299;27;20145;-61
2022/12/08 12:02:41;;;;;;;2.95;0.45;;;4.50;99.90;;;;;;5098554;27;20035;-61
2022/12/08 12:05:44;;;;;;;2.10;0.80;;;4.50;99.90;;;;;;5112452;27;20110;-61
2022/12/08 12:08:44;;;;;;;6.50;1.02;;;4.60;99.90;;;;;;5115831;27;20047;-61
2022/12/08 12:15:02;;;;;;;1.55;0.70;;;4.70;99.90;;;;;;5112197;27;20039;-61
2022/12/08 12:17:50;;;;;;;2.55;0.50;;;4.70;99.90;;;;;;5096560;27;20044;-61
2022/12/08 12:20:33;;;;;;;3.03;0.68;;;4.70;99.90;;;;;;5070604;27;20100;-61
2022/12/08 12:23:06;;;;;;;6.30;1.10;;;4.70;99.90;;;;;;5118270;27;20047;-61
2022/12/08 12:25:35;;;;;;;4.28;1.23;;;4.70;99.90;;;;;;5110248;27;20039;-61
2022/12/08 12:28:05;;;;;;;5.55;1.00;;;4.70;99.90;;;;;;5102874;28;20130;-60
2022/12/08 12:31:15;;;;;;;6.07;1.20;;;4.80;99.90;;;;;;5089332;27;20087;-60
2022/12/08 12:33:42;;;;;;;2.50;0.70;;;4.80;99.90;;;;;;5044043;28;20041;-60
2022/12/08 12:36:10;;;;;;;2.05;0.60;;;4.70;99.90;;;;;;5042382;28;20128;-60
2022/12/08 12:39:00;;;;;;;7.65;0.75;;;4.80;99.90;;;;;;5077580;27;20570;-61
2022/12/08 12:41:37;;;;;;;4.97;1.05;;;4.70;99.90;;;;;;5117838;27;20114;-60
2022/12/08 12:44:22;;;;;;;1.55;0.47;;;4.60;99.90;;;;;;5117042;27;20071;-60
2022/12/08 12:46:48;;;;;;;3.78;0.80;;;4.70;99.90;;;;;;5119847;27;20051;-60
2022/12/08 12:49:39;;;;;;;2.70;0.68;;;4.50;99.90;;;;;;5099494;27;20047;-60
2022/12/08 12:52:14;;;;;;;8.38;0.45;;;4.40;99.90;;;;;;5124207;27;20515;-61
2022/12/08 12:54:49;;;;;;;2.50;0.60;;;4.40;99.90;;;;;;5127088;27;20454;-61
2022/12/08 12:57:18;;;;;;;1.27;0.40;;;4.40;99.90;;;;;;5088303;28;20123;-61
2022/12/08 12:59:45;;;;;;;2.75;0.40;;;4.50;99.90;;;;;;5101426;27;20089;-61
2022/12/08 13:02:16;;;;;;;2.58;0.50;;;4.50;99.90;;;;;;5122515;27;20039;-61
2022/12/08 13:04:53;;;;;;;0.63;0.38;;;4.70;99.90;;;;;;5113772;27;20421;-61
2022/12/08 13:07:26;;;;;;;2.50;0.38;;;4.80;99.90;;;;;;5113341;27;20124;-61
2022/12/08 13:10:40;;;;;;;1.48;0.20;;;4.90;99.90;;;;;;5126520;27;20054;-61
2022/12/08 13:13:15;;;;;;;0.85;0.20;;;4.90;99.90;;;;;;5108752;28;20052;-61
2022/12/08 13:16:04;;;;;;;0.57;0.45;;;4.90;99.90;;;;;;5116171;28;20130;-61
2022/12/08 13:18:46;;;;;;;2.38;0.30;;;4.80;99.90;;;;;;5106045;28;20493;-59
2022/12/08 13:21:21;;;;;;;0.80;0.30;;;4.80;99.90;;;;;;5105821;28;20040;-59
2022/12/08 13:24:16;;;;;;;1.23;0.22;;;4.70;99.90;;;;;;5114989;28;20057;-61
2022/12/08 13:26:44;;;;;;;2.63;0.25;;;4.70;99.90;;;;;;5101504;28;20130;-61